Archival Weather

Norman Y Mineta San Jose Intl

San Jose, California (KSJC)

Report from: Thursday, February 8, 2024 9:53 PM PST
Current time: Friday, June 14, 2024 4:39 AM PDT

Current weather – Weather history – Daily summaries
Weather forecast

Temperature9.4°C (48.9°F)
Dew point4.4°C (39.9°F)
Winds Calm
Visibility10 mi. (16.1 km)
Clouds Few clouds 2,500 ft. (762 m)
Altimeter30.08 in.Hg (1019 mB)
Relative humidity71 %
Density altitude-725 ft. (-221 m)
Sea-level pressure101.9 kPa (1019 mB, 30.08 in.Hg)
Max temp last 6 hours13.9°C (57.0°F)
Min temp last 6 hours7.8°C (46.0°F)
Remarks Automated weather observing station with precipitation discriminator
Pressure rising more quickly
Flight conditions Visual Meteorological Conditions
Raw dataKSJC 090553Z 00000KT 10SM FEW025 09/04 A3008 RMK AO2 SLP185 T00940044 10139 20078 53007
An error has occurred. This application may no longer respond until reloaded. Reload 🗙